Strait of Georgia - south of Nanaimo: Past 24 Hour Conditions

 

South Nomad - 46036

12:00 AM PDT 23 April 2014Buoy position: 48.35N 133.95W
This table is a summary of hourly weather conditions for the past 24 hours.
Date / Time
(PDT)
Wind(knots) Wave height(m) Wave period(s) Pressure(kPa) Air tempC) Water tempC)
23 April 2014
0:00 NNW 4 gust 6 2.5 11.0 100.8 8 9
22 April 2014
23:00 NW 6 gust 8 2.7 12.0 100.8 9 9
22:00 NW 8 gust 10 2.8 11.0 100.8 9 9
21:00 NW 10 gust 12 2.7 11.0 100.7 9 9
20:00 NW 12 gust 16 3.1 12.0 100.7 9 9
19:00 NW 12 gust 16 3.0 11.0 100.7 9 9
18:00 NW 12 gust 16 3.3 11.0 100.7 9 9
17:00 NW 14 gust 18 3.3 12.0 100.7 9 9
16:00 WNW 14 gust 18 3.5 12.0 100.7 9 9
15:00 NW 16 gust 19 3.5 11.0 100.6 9 9
14:00 NW 16 gust 19 3.6 12.0 100.6 9 9
13:00 WNW 16 gust 19 4.1 12.0 100.5 8 9
12:00 WNW 18 gust 21 3.7 13.0 100.4 8 9
11:00 WNW 18 gust 21 3.7 12.0 100.4 8 9
10:00 WNW 18 gust 23 3.8 13.0 100.3 8 9
9:00 WNW 18 gust 21 4.2 13.0 100.2 8 9
8:00 WNW 16 gust 19 4.4 11.0 100.2 8 9
7:00 W 18 gust 21 4.1 13.0 100.2 8 9
6:00 W 16 gust 19 4.2 12.0 100.2 8 9
5:00 W 18 gust 21 4.5 13.0 100.2 8 9
4:00 WSW 19 gust 25 4.4 12.0 100.2 8 9
3:00 SW 19 gust 25 4.3 12.0 100.2 8 9
2:00 SSW 19 gust 25 4.1 14.0 100.3 8 9
1:00 SSW 18 gust 21 3.9 11.0 100.4 8 9
0:00 SW 21 gust 25 4.2 13.0 100.5 9 9
 
Map of Pacific - South Coast marine weather areas Tsawwassen Ferry Terminal South Nomad - 46036 Sentry Shoal - 46131 South Brooks - 46132 Halibut Bank - 46146 South Moresby - 46147 South Hecate Strait - 46185 West Sea Otter - 46204 La Perouse Bank - 46206 East Dellwood - 46207 Discovery Island Esquimalt Harbour Kelp Reefs Malahat Race Rocks Lightstation Saturna Island Sheringham Point University of Victoria Victoria Gonzales Victoria Int'l Airport Ballenas Islands Campbell River Airport Comox Airport Entrance Island Fanny Island Nanaimo Airport Port Hardy Airport Sisters Islets Estevan Point Sartine Island Solander Island Tofino Airport Grief Point Powell River Airport Sechelt Cape St.James Bella Bella Airport Bella Coola Airport Cathedral Point Herbert Island Point Atkinson Sand Heads Lightstation Vancouver Harbour Vancouver Int'l Airport West Vancouver Port Alberni Howe Sound - Pam Rocks Squamish Airport